Time;durP1;ratioP1;P1;durP2;ratioP2;P2;SDS_P1;SDS_P2;PMS_P1;PMS_P2;Temp;Humidity;BMP_temperature;BMP_pressure;BME280_temperature;BME280_humidity;BME280_pressure;Samples;Min_cycle;Max_cycle;Signal;HPM_P1;HPM_P2
2023/04/13 05:02:27;;;;;;;;;4.33;3.67;;;;;;;;4989939;22;48141;-57
2023/04/13 05:04:54;;;;;;;;;5.67;3.00;;;;;;;;4975183;28;46737;-58
2023/04/13 05:07:20;;;;;;;;;5.33;2.33;;;;;;;;4969281;28;45509;-58
2023/04/13 05:09:45;;;;;;;;;5.33;1.67;;;;;;;;4979690;28;45437;-57
2023/04/13 05:12:11;;;;;;;;;5.33;5.00;;;;;;;;4977930;28;45449;-57
2023/04/13 05:14:36;;;;;;;;;6.67;4.00;;;;;;;;4978924;28;46188;-57
2023/04/13 05:17:02;;;;;;;;;9.67;5.00;;;;;;;;4956462;28;46581;-57
2023/04/13 05:19:27;;;;;;;;;4.67;4.67;;;;;;;;4976303;28;45446;-57
2023/04/13 05:21:52;;;;;;;;;6.00;3.00;;;;;;;;4968991;28;45561;-57
2023/04/13 05:24:17;;;;;;;;;3.33;2.67;;;;;;;;4960385;28;45993;-58
2023/04/13 05:26:43;;;;;;;;;10.00;6.00;;;;;;;;4977463;28;45431;-58
2023/04/13 05:29:08;;;;;;;;;5.33;3.33;;;;;;;;4978344;28;45737;-57
2023/04/13 05:31:33;;;;;;;;;5.33;2.00;;;;;;;;4977388;28;45486;-58
2023/04/13 05:33:58;;;;;;;;;6.33;2.00;;;;;;;;4978153;28;45235;-57
2023/04/13 05:36:23;;;;;;;;;3.00;2.00;;;;;;;;4978507;28;45370;-57
2023/04/13 05:38:49;;;;;;;;;5.00;3.00;;;;;;;;4979824;28;45441;-57
2023/04/13 05:41:14;;;;;;;;;1.67;1.67;;;;;;;;4985439;28;45376;-58
2023/04/13 05:43:39;;;;;;;;;7.67;3.00;;;;;;;;4981765;28;46886;-57
2023/04/13 05:46:05;;;;;;;;;8.67;3.67;;;;;;;;4984093;28;45441;-57
2023/04/13 05:48:30;;;;;;;;;3.67;2.00;;;;;;;;4982672;28;45469;-57
2023/04/13 05:50:59;;;;;;;;;5.00;3.33;;;;;;;;4964733;28;45455;-57
2023/04/13 05:53:24;;;;;;;;;2.33;1.00;;;;;;;;4981583;28;46306;-57
2023/04/13 05:55:50;;;;;;;;;5.00;3.00;;;;;;;;4977391;28;45477;-57
2023/04/13 05:58:17;;;;;;;;;3.67;3.67;;;;;;;;4980127;28;46285;-57
2023/04/13 06:00:42;;;;;;;;;3.00;3.00;;;;;;;;4981570;28;45566;-53
2023/04/13 06:03:08;;;;;;;;;4.00;2.33;;;;;;;;4978817;28;46136;-55
2023/04/13 06:05:35;;;;;;;;;3.33;2.00;;;;;;;;4969981;28;45299;-55
2023/04/13 06:08:01;;;;;;;;;6.67;2.00;;;;;;;;4982052;28;45409;-56
2023/04/13 06:10:26;;;;;;;;;3.00;1.00;;;;;;;;4980637;28;45471;-56
2023/04/13 06:12:52;;;;;;;;;7.00;2.33;;;;;;;;4980740;28;46348;-55
2023/04/13 06:15:18;;;;;;;;;4.00;3.00;;;;;;;;4980792;28;45338;-55
2023/04/13 06:17:43;;;;;;;;;7.67;4.33;;;;;;;;4981666;28;45246;-55
2023/04/13 06:20:12;;;;;;;;;4.33;2.00;;;;;;;;4981596;28;45612;-55
2023/04/13 06:22:37;;;;;;;;;9.33;4.33;;;;;;;;4981603;28;46207;-55
2023/04/13 06:25:02;;;;;;;;;4.00;3.00;;;;;;;;4980827;28;45500;-56
2023/04/13 06:27:28;;;;;;;;;6.33;2.00;;;;;;;;4981595;28;45316;-55
2023/04/13 06:29:54;;;;;;;;;3.67;2.33;;;;;;;;4981853;28;45195;-55
2023/04/13 06:32:19;;;;;;;;;2.67;2.33;;;;;;;;4979527;28;46047;-56
2023/04/13 06:34:44;;;;;;;;;5.67;3.33;;;;;;;;4979430;28;45488;-55
2023/04/13 06:37:10;;;;;;;;;7.33;3.67;;;;;;;;4979427;28;45310;-56
2023/04/13 06:39:36;;;;;;;;;5.33;4.00;;;;;;;;4972661;28;45522;-56
2023/04/13 06:42:02;;;;;;;;;6.00;2.67;;;;;;;;4979342;28;47049;-56
2023/04/13 06:44:27;;;;;;;;;4.33;3.67;;;;;;;;4982392;28;45542;-56
2023/04/13 06:46:52;;;;;;;;;5.00;2.33;;;;;;;;4956524;28;45488;-55
2023/04/13 06:49:17;;;;;;;;;10.33;4.00;;;;;;;;4973513;28;45377;-53
2023/04/13 06:51:42;;;;;;;;;4.67;2.00;;;;;;;;4974775;28;45561;-53
2023/04/13 06:54:07;;;;;;;;;4.33;3.33;;;;;;;;4977178;28;45496;-52
2023/04/13 06:56:33;;;;;;;;;3.33;3.33;;;;;;;;4981345;28;45330;-53
2023/04/13 06:59:00;;;;;;;;;4.67;2.00;;;;;;;;4962363;28;45450;-53
2023/04/13 07:01:26;;;;;;;;;4.00;2.00;;;;;;;;4980372;28;46091;-52
2023/04/13 07:03:51;;;;;;;;;2.33;2.00;;;;;;;;4980663;28;45689;-53
2023/04/13 07:06:16;;;;;;;;;4.67;3.00;;;;;;;;4977386;28;45302;-53
2023/04/13 07:08:41;;;;;;;;;3.00;2.33;;;;;;;;4981395;28;45244;-53
2023/04/13 07:11:06;;;;;;;;;7.33;2.67;;;;;;;;4980675;28;46214;-54
2023/04/13 07:13:32;;;;;;;;;4.67;1.67;;;;;;;;4980978;28;45313;-54
2023/04/13 07:15:57;;;;;;;;;5.00;2.00;;;;;;;;4980619;28;45461;-54
2023/04/13 07:18:22;;;;;;;;;1.75;1.75;;;;;;;;4980741;28;45498;-55
2023/04/13 07:20:47;;;;;;;;;4.00;3.00;;;;;;;;4981448;28;45409;-54
2023/04/13 07:23:12;;;;;;;;;4.00;2.00;;;;;;;;4980640;28;45223;-54
2023/04/13 07:25:38;;;;;;;;;4.00;2.00;;;;;;;;4981290;28;45232;-55
2023/04/13 07:28:03;;;;;;;;;5.67;4.00;;;;;;;;4980465;28;45373;-56
2023/04/13 07:30:28;;;;;;;;;7.25;2.50;;;;;;;;4981188;28;46325;-56
2023/04/13 07:32:53;;;;;;;;;7.75;2.00;;;;;;;;4980786;28;45295;-56
2023/04/13 07:35:19;;;;;;;;;3.25;3.25;;;;;;;;4980868;28;45317;-55
2023/04/13 07:37:45;;;;;;;;;3.75;2.25;;;;;;;;4980950;28;45579;-55
2023/04/13 07:40:11;;;;;;;;;6.75;1.25;;;;;;;;4980183;28;46144;-55
2023/04/13 07:42:37;;;;;;;;;1.75;1.75;;;;;;;;4979655;28;45406;-55
2023/04/13 07:45:02;;;;;;;;;6.50;2.75;;;;;;;;4963743;28;45364;-56
2023/04/13 07:47:27;;;;;;;;;3.25;1.00;;;;;;;;4983574;28;45436;-56
2023/04/13 07:49:53;;;;;;;;;5.50;2.75;;;;;;;;4978283;28;46091;-56
2023/04/13 07:52:21;;;;;;;;;1.75;1.75;;;;;;;;4962958;28;45339;-56
2023/04/13 07:54:46;;;;;;;;;6.25;1.75;;;;;;;;4976498;28;45159;-56
2023/04/13 07:57:11;;;;;;;;;7.75;3.50;;;;;;;;4971104;28;45220;-56
2023/04/13 07:59:36;;;;;;;;;2.50;1.75;;;;;;;;4978072;28;45389;-56
2023/04/13 08:02:01;;;;;;;;;1.50;1.50;;;;;;;;4962509;28;45480;-56
2023/04/13 08:04:26;;;;;;;;;4.00;2.50;;;;;;;;4967282;28;45274;-56
2023/04/13 08:06:52;;;;;;;;;5.25;2.75;;;;;;;;4964198;28;45410;-56
2023/04/13 08:09:18;;;;;;;;;5.00;2.00;;;;;;;;4966565;28;45960;-56
2023/04/13 08:11:43;;;;;;;;;6.33;3.00;;;;;;;;4980077;28;45356;-56
2023/04/13 08:14:10;;;;;;;;;5.00;2.33;;;;;;;;4980005;28;45749;-55
2023/04/13 08:16:35;;;;;;;;;5.67;2.00;;;;;;;;4980466;28;45466;-56
2023/04/13 08:19:00;;;;;;;;;3.67;2.00;;;;;;;;4970337;28;46539;-55
2023/04/13 08:21:26;;;;;;;;;4.00;4.00;;;;;;;;4972504;28;45360;-55
2023/04/13 08:23:51;;;;;;;;;5.00;2.00;;;;;;;;4977729;28;45333;-55
2023/04/13 08:26:17;;;;;;;;;5.33;3.33;;;;;;;;4954817;28;45399;-55
2023/04/13 08:28:42;;;;;;;;;3.33;3.00;;;;;;;;4967818;28;45342;-53
2023/04/13 08:31:07;;;;;;;;;3.33;3.00;;;;;;;;4979655;28;45336;-54
2023/04/13 08:33:33;;;;;;;;;4.00;3.00;;;;;;;;4980140;28;45552;-55
2023/04/13 08:35:58;;;;;;;;;3.00;3.00;;;;;;;;4980391;28;45419;-55
2023/04/13 08:38:23;;;;;;;;;3.00;2.00;;;;;;;;4979082;28;45495;-53
2023/04/13 08:40:49;;;;;;;;;2.33;2.00;;;;;;;;4972902;28;45498;-54
2023/04/13 08:43:14;;;;;;;;;3.00;2.67;;;;;;;;4976390;28;45340;-55
2023/04/13 08:45:40;;;;;;;;;7.67;3.33;;;;;;;;4977105;28;45402;-54
2023/04/13 08:48:07;;;;;;;;;2.33;2.00;;;;;;;;4982555;28;47127;-55
2023/04/13 08:50:32;;;;;;;;;3.67;2.67;;;;;;;;4979964;28;45313;-55
2023/04/13 08:52:57;;;;;;;;;2.00;2.00;;;;;;;;4962063;28;45234;-54
2023/04/13 08:55:22;;;;;;;;;6.67;2.00;;;;;;;;4972603;28;45275;-54
2023/04/13 08:57:49;;;;;;;;;6.00;4.00;;;;;;;;4964939;28;45476;-55
2023/04/13 09:00:16;;;;;;;;;2.33;2.00;;;;;;;;4969214;28;45314;-55
2023/04/13 09:02:46;;;;;;;;;3.00;2.00;;;;;;;;4969698;28;45456;-54
2023/04/13 09:05:14;;;;;;;;;2.67;2.67;;;;;;;;4977272;28;45364;-56
2023/04/13 09:07:40;;;;;;;;;3.00;3.00;;;;;;;;4969402;28;46249;-56
2023/04/13 09:10:08;;;;;;;;;2.33;2.33;;;;;;;;4970390;28;45547;-56
2023/04/13 09:12:33;;;;;;;;;4.00;4.00;;;;;;;;4965534;28;45457;-56
2023/04/13 09:14:59;;;;;;;;;7.75;4.00;;;;;;;;4971487;28;45453;-57
2023/04/13 09:17:34;;;;;;;;;7.00;4.00;;;;;;;;4977756;28;46945;-56
2023/04/13 09:20:20;;;;;;;;;4.75;2.25;;;;;;;;4955107;28;45733;-56
2023/04/13 09:22:46;;;;;;;;;4.50;2.00;;;;;;;;4960692;28;45376;-56
2023/04/13 09:25:24;;;;;;;;;6.50;1.75;;;;;;;;4978845;28;45564;-56
2023/04/13 09:27:51;;;;;;;;;5.50;2.25;;;;;;;;4971435;28;46908;-56
2023/04/13 09:30:23;;;;;;;;;1.75;1.50;;;;;;;;4967841;28;45299;-57
2023/04/13 09:33:09;;;;;;;;;1.00;1.00;;;;;;;;4979631;28;45372;-56
2023/04/13 09:35:34;;;;;;;;;4.00;3.00;;;;;;;;4976419;28;45311;-57
2023/04/13 09:38:00;;;;;;;;;2.75;1.25;;;;;;;;4979207;28;46106;-57
2023/04/13 09:40:28;;;;;;;;;3.50;1.75;;;;;;;;4974719;28;45327;-57
2023/04/13 09:42:53;;;;;;;;;3.25;0.25;;;;;;;;4974907;28;45469;-57
2023/04/13 09:45:18;;;;;;;;;2.75;2.75;;;;;;;;4981726;28;45488;-58
2023/04/13 09:47:44;;;;;;;;;1.75;1.50;;;;;;;;4984898;28;45620;-57
2023/04/13 09:50:17;;;;;;;;;3.00;1.75;;;;;;;;4978350;28;45306;-55
2023/04/13 09:52:42;;;;;;;;;3.75;3.00;;;;;;;;4951108;28;45489;-56
2023/04/13 09:55:13;;;;;;;;;1.00;1.00;;;;;;;;4968088;28;45287;-55
2023/04/13 09:57:38;;;;;;;;;3.25;2.00;;;;;;;;4978618;28;46318;-55
2023/04/13 10:00:06;;;;;;;;;0.00;0.00;;;;;;;;4968057;28;45390;-55
2023/04/13 10:02:32;;;;;;;;;2.75;1.50;;;;;;;;4978883;28;45263;-56
2023/04/13 10:04:57;;;;;;;;;2.00;2.00;;;;;;;;4966235;28;45367;-56
2023/04/13 10:07:27;;;;;;;;;0.00;0.00;;;;;;;;4960759;28;46896;-55
2023/04/13 10:09:52;;;;;;;;;4.25;0.50;;;;;;;;4968990;28;45220;-55
2023/04/13 10:12:18;;;;;;;;;5.00;0.00;;;;;;;;4968101;28;45260;-57
2023/04/13 10:14:44;;;;;;;;;2.00;1.00;;;;;;;;4969156;28;45314;-57
2023/04/13 10:17:12;;;;;;;;;1.25;0.00;;;;;;;;4968225;28;45514;-57
2023/04/13 10:19:41;;;;;;;;;0.50;0.00;;;;;;;;4969352;28;45508;-57
2023/04/13 10:22:07;;;;;;;;;1.00;1.00;;;;;;;;4977578;28;45256;-57
2023/04/13 10:24:32;;;;;;;;;1.00;1.00;;;;;;;;4972348;28;45303;-57
2023/04/13 10:27:00;;;;;;;;;0.00;0.00;;;;;;;;4980907;28;46915;-58
2023/04/13 10:29:29;;;;;;;;;5.50;3.00;;;;;;;;4973273;28;45275;-57
2023/04/13 10:31:55;;;;;;;;;2.00;2.00;;;;;;;;4972775;28;45445;-57
2023/04/13 10:34:27;;;;;;;;;4.25;2.00;;;;;;;;4981057;28;45980;-57
2023/04/13 10:36:56;;;;;;;;;1.50;0.75;;;;;;;;4975806;28;46229;-57
2023/04/13 10:39:26;;;;;;;;;1.25;1.25;;;;;;;;4979078;28;45406;-57
2023/04/13 10:42:01;;;;;;;;;0.75;0.50;;;;;;;;4974362;28;45554;-57
2023/04/13 10:44:27;;;;;;;;;2.50;1.50;;;;;;;;4963699;28;45409;-57
2023/04/13 10:46:52;;;;;;;;;1.75;1.50;;;;;;;;4976676;28;46201;-57
2023/04/13 10:49:17;;;;;;;;;3.25;1.75;;;;;;;;4962455;28;45416;-57
2023/04/13 10:51:44;;;;;;;;;0.00;0.00;;;;;;;;4987354;28;45456;-57
2023/04/13 10:54:10;;;;;;;;;3.00;0.00;;;;;;;;4989326;28;45730;-57
2023/04/13 10:56:35;;;;;;;;;2.00;2.00;;;;;;;;4957778;28;47224;-57
2023/04/13 10:59:03;;;;;;;;;0.50;0.00;;;;;;;;4962743;28;45347;-57
2023/04/13 11:01:30;;;;;;;;;1.25;1.25;;;;;;;;4989583;28;46056;-57
2023/04/13 11:03:56;;;;;;;;;2.00;1.50;;;;;;;;4963514;28;45352;-57
2023/04/13 11:06:22;;;;;;;;;2.00;1.00;;;;;;;;4959850;28;47206;-56
2023/04/13 11:08:47;;;;;;;;;5.75;1.25;;;;;;;;4963430;28;45622;-55
2023/04/13 11:11:23;;;;;;;;;2.00;0.25;;;;;;;;4959927;28;45326;-56
2023/04/13 11:13:48;;;;;;;;;3.00;3.00;;;;;;;;4957407;28;45569;-56
2023/04/13 11:16:13;;;;;;;;;1.67;1.67;;;;;;;;4957508;28;47597;-55
2023/04/13 11:18:39;;;;;;;;;2.00;1.00;;;;;;;;4980082;28;45696;-55
2023/04/13 11:21:12;;;;;;;;;3.00;0.50;;;;;;;;4985147;28;45804;-55
2023/04/13 11:23:37;;;;;;;;;0.67;0.67;;;;;;;;4989129;28;45723;-56
2023/04/13 11:26:03;;;;;;;;;1.00;1.00;;;;;;;;4975651;28;45446;-56
2023/04/13 11:28:39;;;;;;;;;2.00;2.00;;;;;;;;4980574;28;45247;-56
2023/04/13 11:31:06;;;;;;;;;3.00;1.00;;;;;;;;4981667;28;45378;-55
2023/04/13 11:33:32;;;;;;;;;2.25;2.00;;;;;;;;4986807;28;45518;-56
2023/04/13 11:35:59;;;;;;;;;3.00;3.00;;;;;;;;4979748;28;45417;-56
2023/04/13 11:38:24;;;;;;;;;1.50;1.50;;;;;;;;4977166;28;45452;-56
2023/04/13 11:40:50;;;;;;;;;3.00;2.00;;;;;;;;4971742;28;45338;-55
2023/04/13 11:43:16;;;;;;;;;3.00;3.00;;;;;;;;4975133;28;45662;-55
2023/04/13 11:45:42;;;;;;;;;8.00;1.67;;;;;;;;4984922;28;46256;-54
2023/04/13 11:48:08;;;;;;;;;5.67;2.67;;;;;;;;4977191;28;45374;-56
2023/04/13 11:50:34;;;;;;;;;3.00;3.00;;;;;;;;4976753;28;45370;-56
2023/04/13 11:52:59;;;;;;;;;1.33;1.33;;;;;;;;4976527;28;45524;-55
2023/04/13 11:55:25;;;;;;;;;2.25;1.00;;;;;;;;4979971;28;45328;-56
2023/04/13 11:57:51;;;;;;;;;1.00;1.00;;;;;;;;4980288;28;45314;-56
2023/04/13 12:00:18;;;;;;;;;1.00;1.00;;;;;;;;4977977;28;45745;-57
2023/04/13 12:02:44;;;;;;;;;1.00;1.00;;;;;;;;4980570;28;45397;-56
2023/04/13 12:05:19;;;;;;;;;1.00;1.00;;;;;;;;4978661;28;45322;-55
2023/04/13 12:07:45;;;;;;;;;2.25;1.00;;;;;;;;4978295;28;45327;-55
2023/04/13 12:10:17;;;;;;;;;2.25;1.00;;;;;;;;4979729;28;45374;-55
2023/04/13 12:12:44;;;;;;;;;1.00;1.00;;;;;;;;4987352;28;45342;-55
2023/04/13 12:15:09;;;;;;;;;4.25;4.25;;;;;;;;4974544;28;46262;-56
2023/04/13 12:17:35;;;;;;;;;3.75;3.75;;;;;;;;4979141;28;45266;-55
2023/04/13 12:20:02;;;;;;;;;3.50;3.50;;;;;;;;4972699;28;45460;-56
2023/04/13 12:22:37;;;;;;;;;1.00;1.00;;;;;;;;4979770;28;45509;-56
2023/04/13 12:25:16;;;;;;;;;1.25;1.25;;;;;;;;4971066;28;48194;-55
2023/04/13 12:27:42;;;;;;;;;5.00;3.00;;;;;;;;4970162;28;45410;-55
2023/04/13 12:30:11;;;;;;;;;1.25;1.25;;;;;;;;4973201;28;45741;-55
2023/04/13 12:32:43;;;;;;;;;4.00;1.50;;;;;;;;4979108;28;45426;-55
2023/04/13 12:35:09;;;;;;;;;3.50;1.00;;;;;;;;4970859;28;46094;-54
2023/04/13 12:37:43;;;;;;;;;4.00;1.00;;;;;;;;4983036;28;45374;-55
2023/04/13 12:40:11;;;;;;;;;3.50;1.25;;;;;;;;4975136;28;45777;-54
2023/04/13 12:42:37;;;;;;;;;4.67;3.00;;;;;;;;4979320;28;45385;-53
2023/04/13 12:45:03;;;;;;;;;2.00;2.00;;;;;;;;4986922;28;45403;-53
2023/04/13 12:47:28;;;;;;;;;4.00;1.00;;;;;;;;4981271;28;45282;-54
2023/04/13 12:49:55;;;;;;;;;1.00;1.00;;;;;;;;4979302;28;45413;-55
2023/04/13 12:52:20;;;;;;;;;1.00;1.00;;;;;;;;4979277;28;46337;-54
2023/04/13 12:54:45;;;;;;;;;3.00;1.33;;;;;;;;4974917;28;45337;-54
2023/04/13 12:57:11;;;;;;;;;1.00;1.00;;;;;;;;4979283;28;45474;-54
2023/04/13 12:59:36;;;;;;;;;1.33;1.33;;;;;;;;4960618;28;45256;-54
2023/04/13 13:02:02;;;;;;;;;4.67;1.00;;;;;;;;4977847;28;45402;-55
2023/04/13 13:04:29;;;;;;;;;1.00;1.00;;;;;;;;4980409;28;46298;-54
2023/04/13 13:06:54;;;;;;;;;3.33;1.00;;;;;;;;4971217;28;45306;-54
2023/04/13 13:09:19;;;;;;;;;1.67;1.00;;;;;;;;4978784;28;45358;-55
2023/04/13 13:11:45;;;;;;;;;1.00;1.00;;;;;;;;4979509;28;45409;-55
2023/04/13 13:14:10;;;;;;;;;3.67;1.00;;;;;;;;4978660;28;46216;-54
2023/04/13 13:16:36;;;;;;;;;1.00;1.00;;;;;;;;4968471;28;45288;-53
2023/04/13 13:19:01;;;;;;;;;2.00;1.00;;;;;;;;4960850;28;45472;-54
2023/04/13 13:21:26;;;;;;;;;2.33;1.00;;;;;;;;4979236;28;45437;-54
2023/04/13 13:23:51;;;;;;;;;1.00;1.00;;;;;;;;4979132;28;46062;-52
2023/04/13 13:26:17;;;;;;;;;0.33;0.00;;;;;;;;4960984;28;45388;-54
2023/04/13 13:28:42;;;;;;;;;1.33;0.33;;;;;;;;4980317;28;45413;-55
2023/04/13 13:31:07;;;;;;;;;2.00;0.00;;;;;;;;4978765;28;45425;-53
2023/04/13 13:33:33;;;;;;;;;2.00;2.00;;;;;;;;4978629;28;47039;-55
2023/04/13 13:35:58;;;;;;;;;1.33;0.33;;;;;;;;4975227;28;45342;-54
2023/04/13 13:38:23;;;;;;;;;1.00;1.00;;;;;;;;4976301;28;45394;-54
2023/04/13 13:40:48;;;;;;;;;1.00;1.00;;;;;;;;4976321;28;45478;-53
2023/04/13 13:43:13;;;;;;;;;1.00;1.00;;;;;;;;4957168;28;47173;-52
2023/04/13 13:45:39;;;;;;;;;1.00;1.00;;;;;;;;4964666;28;45528;-55
2023/04/13 13:48:04;;;;;;;;;1.00;1.00;;;;;;;;4978456;28;45616;-54
2023/04/13 13:50:29;;;;;;;;;0.00;0.00;;;;;;;;4968333;28;45680;-53
2023/04/13 13:52:54;;;;;;;;;2.00;2.00;;;;;;;;4971863;28;46060;-52
2023/04/13 13:55:21;;;;;;;;;1.00;1.00;;;;;;;;4970893;28;46495;-50
2023/04/13 13:57:46;;;;;;;;;4.33;2.67;;;;;;;;4975872;28;45288;-54
2023/04/13 14:00:15;;;;;;;;;3.33;0.67;;;;;;;;4977047;28;45205;-54
2023/04/13 14:02:41;;;;;;;;;1.00;1.00;;;;;;;;4979693;28;46246;-54
2023/04/13 14:05:08;;;;;;;;;2.00;1.00;;;;;;;;4978195;28;45495;-54
2023/04/13 14:07:33;;;;;;;;;3.00;1.00;;;;;;;;4976663;28;45407;-54
2023/04/13 14:09:58;;;;;;;;;2.00;2.00;;;;;;;;4956132;28;45342;-55
2023/04/13 14:12:23;;;;;;;;;2.00;0.00;;;;;;;;4966555;28;45801;-55
2023/04/13 14:14:48;;;;;;;;;1.33;1.33;;;;;;;;4973614;28;45359;-53
2023/04/13 14:17:14;;;;;;;;;2.00;2.00;;;;;;;;4967470;28;45302;-56
2023/04/13 14:19:39;;;;;;;;;0.00;0.00;;;;;;;;4973415;28;45256;-53
2023/04/13 14:22:04;;;;;;;;;1.33;0.00;;;;;;;;4980282;28;46133;-53
2023/04/13 14:24:30;;;;;;;;;4.33;0.00;;;;;;;;4961240;28;45455;-54
2023/04/13 14:26:55;;;;;;;;;1.00;1.00;;;;;;;;4978862;28;45409;-55
2023/04/13 14:29:20;;;;;;;;;1.00;0.00;;;;;;;;4981761;28;45405;-55
2023/04/13 14:31:45;;;;;;;;;3.00;1.00;;;;;;;;4964322;28;46020;-55
2023/04/13 14:34:10;;;;;;;;;2.33;1.00;;;;;;;;4974287;28;45439;-55
2023/04/13 14:36:36;;;;;;;;;3.33;2.00;;;;;;;;4976084;28;45741;-55
2023/04/13 14:39:02;;;;;;;;;1.00;1.00;;;;;;;;4982247;28;45653;-55
2023/04/13 14:41:27;;;;;;;;;1.00;1.00;;;;;;;;4975076;28;46905;-54
2023/04/13 14:43:52;;;;;;;;;1.00;1.00;;;;;;;;4981661;28;45425;-52
2023/04/13 14:46:18;;;;;;;;;2.00;2.00;;;;;;;;4990431;28;45345;-56
2023/04/13 14:48:43;;;;;;;;;3.67;2.00;;;;;;;;4974936;28;45569;-54
2023/04/13 14:51:14;;;;;;;;;5.00;2.00;;;;;;;;4976459;28;45584;-55
2023/04/13 14:53:39;;;;;;;;;1.00;1.00;;;;;;;;4980415;28;45570;-54
2023/04/13 14:56:04;;;;;;;;;0.00;0.00;;;;;;;;4981450;28;45244;-55
2023/04/13 14:58:30;;;;;;;;;2.33;1.00;;;;;;;;4978340;28;45331;-54
2023/04/13 15:00:55;;;;;;;;;2.00;0.67;;;;;;;;4980701;28;45666;-55
2023/04/13 15:03:20;;;;;;;;;1.00;1.00;;;;;;;;4992807;28;45382;-54
2023/04/13 15:05:46;;;;;;;;;2.33;0.33;;;;;;;;4981007;28;45329;-54
2023/04/13 15:08:14;;;;;;;;;1.00;1.00;;;;;;;;4973470;28;45477;-55
2023/04/13 15:10:41;;;;;;;;;1.00;1.00;;;;;;;;4981250;28;46402;-59
2023/04/13 15:13:07;;;;;;;;;0.00;0.00;;;;;;;;4963210;28;45315;-53
2023/04/13 15:15:33;;;;;;;;;2.67;1.00;;;;;;;;4977924;28;45326;-55
2023/04/13 15:17:58;;;;;;;;;2.00;1.00;;;;;;;;4975682;28;45434;-54
2023/04/13 15:20:25;;;;;;;;;1.00;1.00;;;;;;;;4980683;28;46123;-54
2023/04/13 15:22:50;;;;;;;;;3.00;1.33;;;;;;;;4981527;28;45559;-55
2023/04/13 15:25:15;;;;;;;;;1.33;1.33;;;;;;;;4980890;28;45426;-49
2023/04/13 15:27:40;;;;;;;;;1.00;0.00;;;;;;;;4980963;28;45363;-54
2023/04/13 15:30:06;;;;;;;;;1.33;1.00;;;;;;;;4978673;28;46275;-53
2023/04/13 15:32:35;;;;;;;;;0.00;0.00;;;;;;;;4982326;28;45619;-54
2023/04/13 15:35:00;;;;;;;;;1.67;1.00;;;;;;;;4982625;28;45423;-54
2023/04/13 15:37:25;;;;;;;;;1.00;1.00;;;;;;;;4979430;28;45405;-53
2023/04/13 15:39:50;;;;;;;;;1.67;1.67;;;;;;;;4979588;28;45591;-52
2023/04/13 15:42:17;;;;;;;;;1.00;1.00;;;;;;;;4978887;28;45290;-52
2023/04/13 15:44:43;;;;;;;;;1.00;1.00;;;;;;;;4978839;28;45409;-53
2023/04/13 15:47:08;;;;;;;;;0.33;0.33;;;;;;;;4987797;28;45376;-53
2023/04/13 15:49:33;;;;;;;;;1.00;1.00;;;;;;;;4977311;28;46468;-53
2023/04/13 15:51:58;;;;;;;;;1.33;0.67;;;;;;;;4979157;28;45357;-53
2023/04/13 15:54:23;;;;;;;;;0.00;0.00;;;;;;;;4958834;28;45723;-54
2023/04/13 15:56:48;;;;;;;;;1.00;1.00;;;;;;;;4977441;28;45380;-52
2023/04/13 15:59:14;;;;;;;;;2.67;1.00;;;;;;;;4976588;28;46213;-54
2023/04/13 16:01:42;;;;;;;;;3.67;1.00;;;;;;;;4978529;28;45440;-53
2023/04/13 16:04:08;;;;;;;;;1.00;1.00;;;;;;;;4976057;28;45243;-55
2023/04/13 16:06:33;;;;;;;;;0.00;0.00;;;;;;;;4980290;28;45774;-54
2023/04/13 16:08:58;;;;;;;;;1.00;1.00;;;;;;;;4985156;28;46695;-53
2023/04/13 16:11:23;;;;;;;;;0.00;0.00;;;;;;;;4971034;28;45259;-53
2023/04/13 16:13:50;;;;;;;;;1.33;1.33;;;;;;;;4982605;28;45464;-53
2023/04/13 16:16:16;;;;;;;;;0.00;0.00;;;;;;;;4977647;28;46592;-54
2023/04/13 16:18:42;;;;;;;;;0.00;0.00;;;;;;;;4977342;28;46160;-51
2023/04/13 16:21:07;;;;;;;;;0.00;0.00;;;;;;;;4974538;28;45358;-54
2023/04/13 16:23:32;;;;;;;;;0.00;0.00;;;;;;;;4975162;28;45341;-51
2023/04/13 16:25:58;;;;;;;;;1.00;1.00;;;;;;;;4979060;28;45397;-52
2023/04/13 16:28:24;;;;;;;;;0.00;0.00;;;;;;;;4974946;28;46234;-54
2023/04/13 16:30:49;;;;;;;;;2.33;1.00;;;;;;;;4966034;28;45777;-53
2023/04/13 16:33:14;;;;;;;;;1.67;0.67;;;;;;;;4977990;28;45374;-51
2023/04/13 16:35:39;;;;;;;;;2.00;0.67;;;;;;;;4979900;28;45463;-55
2023/04/13 16:38:05;;;;;;;;;2.00;2.00;;;;;;;;4976542;28;45801;-50
2023/04/13 16:40:30;;;;;;;;;1.00;1.00;;;;;;;;4976708;28;45836;-49
2023/04/13 16:42:55;;;;;;;;;1.00;1.00;;;;;;;;4974464;28;45922;-54
2023/04/13 16:45:20;;;;;;;;;1.00;1.00;;;;;;;;4952685;28;45521;-50
2023/04/13 16:47:46;;;;;;;;;2.33;2.00;;;;;;;;4967698;28;46397;-54
2023/04/13 16:50:12;;;;;;;;;1.33;0.00;;;;;;;;4978214;28;45788;-52
2023/04/13 16:52:40;;;;;;;;;1.00;1.00;;;;;;;;4977160;28;45457;-52
2023/04/13 16:55:05;;;;;;;;;0.00;0.00;;;;;;;;4957429;28;47427;-51
2023/04/13 16:57:31;;;;;;;;;0.00;0.00;;;;;;;;4969270;28;45982;-51
2023/04/13 16:59:58;;;;;;;;;0.67;0.00;;;;;;;;4973981;28;45402;-50
2023/04/13 17:02:24;;;;;;;;;0.00;0.00;;;;;;;;4984551;28;45593;-53
2023/04/13 17:04:49;;;;;;;;;0.00;0.00;;;;;;;;4977652;28;45504;-52
2023/04/13 17:07:14;;;;;;;;;0.00;0.00;;;;;;;;4975242;28;46135;-56
2023/04/13 17:09:39;;;;;;;;;1.00;0.00;;;;;;;;4977711;28;45456;-53
2023/04/13 17:12:05;;;;;;;;;1.00;0.67;;;;;;;;4977784;28;45504;-51
2023/04/13 17:14:31;;;;;;;;;0.00;0.00;;;;;;;;4955838;28;45516;-52
2023/04/13 17:16:56;;;;;;;;;1.00;1.00;;;;;;;;4985044;28;45400;-51
2023/04/13 17:19:22;;;;;;;;;1.00;1.00;;;;;;;;4981191;28;45487;-51
2023/04/13 17:21:48;;;;;;;;;0.00;0.00;;;;;;;;4935216;28;46637;-48
2023/04/13 17:24:13;;;;;;;;;1.00;1.00;;;;;;;;4976017;28;45691;-50
2023/04/13 17:26:39;;;;;;;;;2.67;0.00;;;;;;;;4976202;28;45658;-53
2023/04/13 17:29:05;;;;;;;;;1.33;0.00;;;;;;;;4977837;28;45472;-55
2023/04/13 17:31:30;;;;;;;;;0.00;0.00;;;;;;;;4962780;28;45434;-52
2023/04/13 17:33:55;;;;;;;;;0.00;0.00;;;;;;;;4980380;28;45233;-50
2023/04/13 17:36:21;;;;;;;;;0.00;0.00;;;;;;;;4981118;28;45619;-55
2023/04/13 17:38:46;;;;;;;;;0.00;0.00;;;;;;;;4979144;28;45408;-51
2023/04/13 17:41:12;;;;;;;;;0.00;0.00;;;;;;;;4979209;28;45628;-53
2023/04/13 17:43:37;;;;;;;;;2.00;0.00;;;;;;;;4982012;28;45502;-53
2023/04/13 17:46:03;;;;;;;;;1.00;0.00;;;;;;;;4982651;28;45369;-51
2023/04/13 17:48:28;;;;;;;;;3.33;0.00;;;;;;;;4977102;28;45598;-53
2023/04/13 17:50:53;;;;;;;;;0.33;0.33;;;;;;;;4973781;28;45310;-51
2023/04/13 17:53:18;;;;;;;;;0.00;0.00;;;;;;;;4985787;28;45316;-52
2023/04/13 17:55:43;;;;;;;;;1.33;1.00;;;;;;;;4980951;28;46330;-50
2023/04/13 17:58:10;;;;;;;;;1.67;1.00;;;;;;;;4979615;28;45479;-51
2023/04/13 18:00:36;;;;;;;;;1.00;1.00;;;;;;;;4963612;28;45495;-50
2023/04/13 18:03:02;;;;;;;;;1.33;1.33;;;;;;;;4962954;28;45789;-54
2023/04/13 18:05:28;;;;;;;;;3.00;1.67;;;;;;;;4973082;28;46324;-53
2023/04/13 18:07:53;;;;;;;;;2.33;1.00;;;;;;;;4986568;28;45319;-53
2023/04/13 18:10:18;;;;;;;;;1.00;1.00;;;;;;;;4981151;28;45271;-55
2023/04/13 18:12:43;;;;;;;;;1.67;1.00;;;;;;;;4981732;28;45314;-55
2023/04/13 18:15:09;;;;;;;;;1.00;1.00;;;;;;;;4980965;28;46371;-54
2023/04/13 18:17:35;;;;;;;;;1.00;1.00;;;;;;;;4976810;28;45447;-55
2023/04/13 18:20:00;;;;;;;;;1.67;1.67;;;;;;;;4984856;28;45554;-52
2023/04/13 18:22:26;;;;;;;;;3.00;2.33;;;;;;;;4982880;28;45588;-53
2023/04/13 18:24:52;;;;;;;;;1.00;1.00;;;;;;;;4982928;28;45425;-51
2023/04/13 18:27:18;;;;;;;;;3.00;0.33;;;;;;;;4979433;28;45553;-49
2023/04/13 18:29:43;;;;;;;;;2.00;1.00;;;;;;;;4989982;28;45453;-52
2023/04/13 18:32:08;;;;;;;;;2.00;1.00;;;;;;;;4980281;28;45471;-50
2023/04/13 18:34:35;;;;;;;;;2.00;1.67;;;;;;;;4976684;28;45560;-52
2023/04/13 18:37:00;;;;;;;;;3.33;2.67;;;;;;;;4968585;28;45524;-50
2023/04/13 18:39:25;;;;;;;;;4.33;1.67;;;;;;;;4984957;28;45507;-52
2023/04/13 18:41:51;;;;;;;;;2.00;1.33;;;;;;;;4975778;28;45416;-50
2023/04/13 18:44:16;;;;;;;;;1.67;1.67;;;;;;;;4974653;28;45479;-52
2023/04/13 18:46:41;;;;;;;;;0.33;0.33;;;;;;;;4979643;28;45516;-50
2023/04/13 18:49:06;;;;;;;;;0.67;0.67;;;;;;;;4982628;28;46809;-54
2023/04/13 18:51:32;;;;;;;;;2.00;0.67;;;;;;;;4971489;28;45647;-53
2023/04/13 18:53:57;;;;;;;;;1.33;0.00;;;;;;;;4959035;28;46137;-53
2023/04/13 18:56:22;;;;;;;;;1.00;1.00;;;;;;;;4978762;28;45311;-53
2023/04/13 18:58:48;;;;;;;;;5.33;2.00;;;;;;;;4979139;28;45638;-52
2023/04/13 19:01:14;;;;;;;;;2.00;2.00;;;;;;;;4974789;28;45906;-52
2023/04/13 19:03:39;;;;;;;;;3.33;3.33;;;;;;;;4978554;28;45740;-53
2023/04/13 19:06:04;;;;;;;;;5.00;3.00;;;;;;;;4979835;28;45489;-49
2023/04/13 19:08:30;;;;;;;;;1.67;1.00;;;;;;;;4985340;28;45493;-52
2023/04/13 19:10:55;;;;;;;;;4.67;2.00;;;;;;;;4967830;28;45426;-49
2023/04/13 19:13:20;;;;;;;;;3.00;1.67;;;;;;;;4961948;28;47005;-48
2023/04/13 19:15:45;;;;;;;;;3.00;1.00;;;;;;;;4987450;28;45402;-48
2023/04/13 19:18:11;;;;;;;;;2.00;2.00;;;;;;;;4971027;28;46088;-50
2023/04/13 19:20:36;;;;;;;;;2.00;2.00;;;;;;;;4974525;28;45581;-51
2023/04/13 19:23:02;;;;;;;;;2.67;2.67;;;;;;;;4977960;28;46295;-51
2023/04/13 19:25:27;;;;;;;;;2.00;2.00;;;;;;;;4980330;28;45458;-52
2023/04/13 19:27:52;;;;;;;;;2.33;2.33;;;;;;;;4960913;28;45627;-51
2023/04/13 19:30:18;;;;;;;;;5.00;5.00;;;;;;;;4979407;28;45647;-48
2023/04/13 19:32:44;;;;;;;;;3.00;3.00;;;;;;;;4968998;28;46262;-49
2023/04/13 19:35:11;;;;;;;;;4.33;4.00;;;;;;;;4973260;28;45739;-50
2023/04/13 19:37:36;;;;;;;;;4.67;2.67;;;;;;;;4980117;28;45622;-49